createdAt,value
2022-10-25T12:36:36.638Z,18.81
2022-10-25T12:37:36.563Z,19.08
2022-10-25T12:38:36.513Z,19.51
2022-10-25T12:39:36.498Z,19.66
2022-10-25T12:40:37.717Z,19.81
2022-10-25T12:41:36.467Z,19.96
2022-10-25T12:42:36.453Z,20.03
2022-10-25T12:43:36.428Z,20.79
2022-10-25T12:44:36.408Z,21.54
2022-10-25T12:45:36.399Z,21.37
2022-10-25T12:46:36.376Z,21.17
2022-10-25T12:49:07.958Z,20.47
2022-10-25T12:52:08.951Z,20.58
2022-10-25T12:53:08.860Z,21.50
2022-10-25T12:54:08.838Z,21.53
2022-10-25T12:55:08.824Z,21.27
2022-10-25T12:56:08.812Z,20.98
2022-10-25T12:57:33.762Z,20.55
2022-10-25T12:58:33.723Z,20.62
2022-10-25T13:00:16.222Z,20.51
2022-10-25T13:11:39.106Z,19.36
2022-10-25T13:12:39.022Z,19.74
2022-10-25T13:13:46.713Z,19.99
2022-10-25T13:14:38.969Z,20.85
2022-10-25T13:15:38.973Z,20.41
2022-10-25T13:16:38.933Z,20.13
2022-10-25T13:17:38.938Z,19.99
2022-10-25T13:18:38.919Z,19.88
2022-10-25T13:22:08.450Z,19.78
2022-10-25T13:23:08.451Z,19.83
2022-10-25T13:27:47.368Z,19.73
2022-10-25T13:28:47.262Z,19.68
2022-10-25T13:29:47.239Z,19.41
2022-10-25T13:32:02.353Z,19.44
2022-10-25T13:33:55.364Z,19.39
2022-10-25T13:34:55.337Z,19.55
2022-10-25T13:35:55.329Z,20.17
2022-10-25T13:36:55.317Z,20.10
2022-10-25T13:37:55.309Z,20.11
2022-10-25T13:38:55.277Z,20.33
2022-10-25T13:39:55.269Z,20.77
2022-10-25T13:40:55.256Z,20.95
2022-10-25T13:41:55.237Z,20.73
2022-10-25T13:42:55.304Z,20.58
2022-10-25T13:47:37.656Z,20.01
2022-10-25T13:48:37.629Z,20.17
2022-10-25T13:49:37.623Z,20.39
2022-10-25T13:50:37.596Z,20.08
2022-10-25T13:51:37.592Z,20.06
2022-10-25T13:52:37.589Z,20.42
2022-10-25T13:53:37.557Z,20.74
2022-10-25T13:57:33.179Z,19.98
2022-10-25T13:58:33.147Z,20.47
2022-10-25T13:59:33.142Z,20.87
2022-10-25T14:00:33.174Z,21.46
2022-10-25T14:02:53.314Z,21.01
2022-10-25T14:03:53.295Z,20.59
